Time;durP1;ratioP1;P1;durP2;ratioP2;P2;SDS_P1;SDS_P2;PMS_P1;PMS_P2;Temp;Humidity;BMP_temperature;BMP_pressure;BME280_temperature;BME280_humidity;BME280_pressure;Samples;Min_cycle;Max_cycle;Signal;HPM_P1;HPM_P2
2022/11/12 00:00:18;;;;;;;24.80;15.77;;;3.90;99.90;;;;;;7622207;19;20018;-73
2022/11/12 00:03:09;;;;;;;24.83;16.27;;;3.80;99.90;;;;;;7621367;19;20035;-73
2022/11/12 00:06:00;;;;;;;31.48;18.42;;;3.80;99.90;;;;;;7616442;19;20890;-73
2022/11/12 00:08:50;;;;;;;33.75;19.23;;;3.80;99.90;;;;;;7619285;19;20388;-72
2022/11/12 00:11:42;;;;;;;30.60;18.33;;;3.80;99.90;;;;;;7599939;19;20823;-73
2022/11/12 00:14:32;;;;;;;33.85;19.83;;;3.70;99.90;;;;;;7610591;19;20058;-73
2022/11/12 00:17:23;;;;;;;25.55;17.65;;;3.60;99.90;;;;;;7620646;19;20026;-73
2022/11/12 00:20:13;;;;;;;27.67;18.20;;;3.50;99.90;;;;;;7613927;19;20744;-74
2022/11/12 00:23:04;;;;;;;25.85;15.98;;;3.50;99.90;;;;;;6095769;19;10001202;-72
2022/11/12 00:25:59;;;;;;;28.77;18.58;;;3.50;99.90;;;;;;7600258;19;20018;-74
2022/11/12 00:28:50;;;;;;;25.88;16.83;;;3.50;99.90;;;;;;7609588;19;20018;-73
2022/11/12 00:31:41;;;;;;;27.40;17.00;;;3.40;99.90;;;;;;7614767;19;20150;-73
2022/11/12 00:34:33;;;;;;;27.90;15.95;;;3.40;99.90;;;;;;7605389;19;21968;-73
2022/11/12 00:37:24;;;;;;;23.25;14.73;;;3.40;99.90;;;;;;7613651;19;20049;-72
2022/11/12 00:40:15;;;;;;;21.75;14.38;;;3.50;99.90;;;;;;7610598;19;20022;-72
2022/11/12 00:43:05;;;;;;;21.02;13.80;;;3.50;99.90;;;;;;7608834;19;20384;-72
2022/11/12 00:45:56;;;;;;;22.65;14.05;;;3.50;99.90;;;;;;7607936;19;20010;-72
2022/11/12 00:48:46;;;;;;;20.20;14.13;;;3.50;99.90;;;;;;7616692;19;20045;-73
2022/11/12 00:51:37;;;;;;;24.00;14.48;;;3.50;99.90;;;;;;7611329;19;20066;-71
2022/11/12 00:54:28;;;;;;;21.75;13.23;;;3.40;99.90;;;;;;7605423;19;20037;-72
2022/11/12 00:57:18;;;;;;;24.60;14.20;;;3.50;99.90;;;;;;7619355;19;20010;-72
2022/11/12 01:00:15;;;;;;;21.38;12.95;;;3.50;99.90;;;;;;7615194;19;20015;-72
2022/11/12 01:03:05;;;;;;;23.17;13.02;;;3.50;99.90;;;;;;7619811;19;20018;-73
2022/11/12 01:06:07;;;;;;;21.25;13.57;;;3.50;99.90;;;;;;7604032;19;20082;-72
2022/11/12 01:08:58;;;;;;;22.35;13.57;;;3.50;99.90;;;;;;7620626;19;20027;-72
2022/11/12 01:11:49;;;;;;;20.83;13.18;;;3.40;99.90;;;;;;7619841;19;20602;-72
2022/11/12 01:14:40;;;;;;;22.58;13.63;;;3.40;99.90;;;;;;7620304;19;20022;-73
2022/11/12 01:17:33;;;;;;;22.85;14.57;;;3.40;99.90;;;;;;7616934;19;20339;-72
2022/11/12 01:20:24;;;;;;;25.30;14.00;;;3.40;99.90;;;;;;7617936;19;21800;-72
2022/11/12 01:23:15;;;;;;;18.30;12.40;;;3.50;99.90;;;;;;7617771;19;20542;-72
2022/11/12 01:26:12;;;;;;;20.45;12.77;;;3.60;99.90;;;;;;7619313;19;20085;-73
2022/11/12 01:29:03;;;;;;;19.88;13.55;;;3.60;99.90;;;;;;7597641;19;20022;-73
2022/11/12 01:31:54;;;;;;;17.75;12.52;;;3.60;99.90;;;;;;7591149;19;20673;-72
2022/11/12 01:34:45;;;;;;;20.83;12.38;;;3.60;99.90;;;;;;7590431;19;20677;-72
2022/11/12 01:37:35;;;;;;;25.10;13.95;;;3.70;99.90;;;;;;7595562;19;20541;-72
2022/11/12 01:40:26;;;;;;;24.25;14.68;;;3.70;99.90;;;;;;7587657;19;20014;-72
2022/11/12 01:43:17;;;;;;;21.88;13.75;;;3.70;99.90;;;;;;7591256;19;20022;-73
2022/11/12 01:46:28;;;;;;;23.40;13.48;;;3.70;99.90;;;;;;7602743;19;20964;-72
2022/11/12 01:49:28;;;;;;;24.10;13.10;;;3.80;99.90;;;;;;7593688;19;20022;-73
2022/11/12 01:52:25;;;;;;;23.58;12.57;;;3.80;99.90;;;;;;7595526;19;20383;-72
2022/11/12 01:55:22;;;;;;;21.73;14.88;;;3.80;99.90;;;;;;7587941;19;20062;-73
2022/11/12 01:58:16;;;;;;;41.97;24.27;;;3.80;99.90;;;;;;7599477;19;20017;-72
2022/11/12 02:01:06;;;;;;;37.07;22.47;;;3.70;99.90;;;;;;7597736;19;20019;-72
2022/11/12 02:03:57;;;;;;;36.45;20.70;;;3.80;99.90;;;;;;7574974;19;20271;-72
2022/11/12 02:06:51;;;;;;;35.75;21.13;;;3.90;99.90;;;;;;7595616;19;20053;-73
2022/11/12 02:09:41;;;;;;;32.47;16.57;;;3.90;99.90;;;;;;7592656;19;20359;-73
2022/11/12 02:15:43;;;;;;;27.75;16.63;;;3.90;99.90;;;;;;7610335;19;20118;-74
2022/11/12 02:18:34;;;;;;;24.42;15.48;;;3.90;99.90;;;;;;7617579;19;20030;-73
2022/11/12 02:21:25;;;;;;;25.23;15.73;;;4.00;99.90;;;;;;7610349;19;21187;-73
2022/11/12 02:24:16;;;;;;;29.63;16.27;;;3.90;99.90;;;;;;7617925;19;20014;-73
2022/11/12 02:27:08;;;;;;;26.00;16.27;;;4.00;99.90;;;;;;7619839;19;20022;-73
2022/11/12 02:29:58;;;;;;;30.70;17.27;;;4.00;99.90;;;;;;7593839;19;20022;-72
2022/11/12 02:32:49;;;;;;;26.70;16.42;;;3.90;99.90;;;;;;7592567;19;20426;-73
2022/11/12 02:35:40;;;;;;;25.85;15.32;;;3.90;99.90;;;;;;7586938;19;20324;-72
2022/11/12 02:38:31;;;;;;;31.48;16.90;;;3.90;99.90;;;;;;7594976;19;20014;-73
2022/11/12 02:41:22;;;;;;;28.75;15.55;;;3.90;99.90;;;;;;7580078;19;20021;-72
2022/11/12 02:44:13;;;;;;;31.13;16.85;;;3.90;99.90;;;;;;7598572;19;21192;-73
2022/11/12 02:47:03;;;;;;;28.88;16.40;;;3.90;99.90;;;;;;7614302;19;20015;-72
2022/11/12 02:49:54;;;;;;;29.50;16.85;;;3.90;99.90;;;;;;7595520;19;20010;-73
2022/11/12 02:52:44;;;;;;;25.10;15.15;;;4.00;99.90;;;;;;7601916;19;20373;-73
2022/11/12 02:55:35;;;;;;;24.20;15.10;;;4.00;99.90;;;;;;7594522;19;20097;-72
2022/11/12 02:58:27;;;;;;;31.75;17.77;;;4.00;99.90;;;;;;7597652;19;20018;-73
2022/11/12 03:01:18;;;;;;;30.95;17.98;;;3.90;99.90;;;;;;7593487;19;20014;-74
2022/11/12 03:04:09;;;;;;;26.70;15.63;;;3.90;99.90;;;;;;7588067;19;20033;-74
2022/11/12 03:07:00;;;;;;;26.88;16.52;;;3.90;99.90;;;;;;7600365;19;20019;-73
2022/11/12 03:09:51;;;;;;;28.35;17.38;;;3.90;99.90;;;;;;7604027;19;20014;-73
2022/11/12 03:12:42;;;;;;;25.70;16.27;;;3.90;99.90;;;;;;7603418;19;20014;-73
2022/11/12 03:15:33;;;;;;;30.25;17.20;;;3.80;99.90;;;;;;7605189;19;20031;-73
2022/11/12 03:18:23;;;;;;;29.55;15.82;;;3.70;99.90;;;;;;7621459;19;20014;-73
2022/11/12 03:21:14;;;;;;;25.55;15.82;;;3.70;99.90;;;;;;7609133;19;20014;-73
2022/11/12 03:24:05;;;;;;;29.52;16.58;;;3.70;99.90;;;;;;7622014;19;20821;-74
2022/11/12 03:26:56;;;;;;;27.58;15.32;;;3.60;99.90;;;;;;7621978;19;20640;-73
2022/11/12 03:29:47;;;;;;;22.67;14.52;;;3.60;99.90;;;;;;7595141;19;20022;-73
2022/11/12 03:32:37;;;;;;;27.50;15.85;;;3.60;99.90;;;;;;7599677;19;20015;-73
2022/11/12 03:35:28;;;;;;;26.48;15.63;;;3.50;99.90;;;;;;7591945;19;20122;-73
2022/11/12 03:38:19;;;;;;;25.55;14.82;;;3.50;99.90;;;;;;7592874;19;20018;-74
2022/11/12 03:41:09;;;;;;;25.23;16.33;;;3.40;99.90;;;;;;7583986;19;20029;-72
2022/11/12 03:44:00;;;;;;;28.20;17.33;;;3.30;99.90;;;;;;7602983;19;20018;-72
2022/11/12 03:46:50;;;;;;;28.15;17.50;;;3.10;99.90;;;;;;7604908;19;21037;-73
2022/11/12 03:49:40;;;;;;;31.90;19.67;;;3.10;99.90;;;;;;7590444;19;20127;-73
2022/11/12 03:52:31;;;;;;;38.80;17.88;;;3.10;99.90;;;;;;7587313;19;20975;-73
2022/11/12 03:55:23;;;;;;;32.08;19.00;;;3.00;99.90;;;;;;7596398;19;20029;-72
2022/11/12 03:58:13;;;;;;;26.63;15.88;;;3.00;99.90;;;;;;7598260;19;20028;-73
2022/11/12 04:01:04;;;;;;;30.05;16.55;;;3.00;99.90;;;;;;7597629;19;20014;-73
2022/11/12 04:03:55;;;;;;;24.73;15.27;;;3.00;99.90;;;;;;7593983;19;20010;-73
2022/11/12 04:09:55;;;;;;;29.35;16.38;;;3.10;99.90;;;;;;7607332;19;20392;-74
2022/11/12 04:22:29;;;;;;;24.40;15.35;;;3.10;99.90;;;;;;7601240;19;20624;-73
2022/11/12 04:28:29;;;;;;;27.63;15.35;;;3.10;99.90;;;;;;7577442;19;20019;-72
2022/11/12 04:31:20;;;;;;;25.08;14.65;;;3.10;99.90;;;;;;7583694;19;20023;-72
2022/11/12 04:37:44;;;;;;;30.60;18.70;;;3.10;99.90;;;;;;7594113;19;20521;-72
2022/11/12 04:46:54;;;;;;;26.13;15.57;;;2.70;99.90;;;;;;7598376;19;20019;-73
2022/11/12 04:49:45;;;;;;;30.75;16.20;;;2.80;99.90;;;;;;7579135;19;20429;-73
2022/11/12 04:52:36;;;;;;;28.63;17.75;;;2.90;99.90;;;;;;7601799;19;20014;-73
2022/11/12 04:55:26;;;;;;;29.42;17.08;;;2.80;99.90;;;;;;7579425;19;20668;-73
2022/11/12 04:58:17;;;;;;;29.10;17.48;;;2.80;99.90;;;;;;7593617;19;20010;-74
2022/11/12 05:01:08;;;;;;;28.30;16.95;;;2.90;99.90;;;;;;7591172;19;20021;-73
2022/11/12 05:03:59;;;;;;;29.25;15.48;;;2.80;99.90;;;;;;7589840;19;20018;-73
2022/11/12 05:06:52;;;;;;;28.23;15.18;;;2.90;99.90;;;;;;7589185;19;20018;-73
2022/11/12 05:09:44;;;;;;;33.33;16.13;;;2.90;99.90;;;;;;7581796;19;20050;-73
2022/11/12 05:12:35;;;;;;;25.92;15.27;;;3.00;99.90;;;;;;7572331;19;20780;-71
2022/11/12 05:15:25;;;;;;;33.80;16.95;;;3.00;99.90;;;;;;7586340;19;20014;-73
2022/11/12 05:18:16;;;;;;;25.35;15.85;;;3.10;99.90;;;;;;7599450;19;20070;-72
2022/11/12 05:24:16;;;;;;;23.13;13.20;;;3.00;99.90;;;;;;7621667;19;20107;-74
2022/11/12 05:27:26;;;;;;;26.90;14.32;;;2.90;99.90;;;;;;7611388;19;20010;-73
2022/11/12 05:30:17;;;;;;;16.65;11.52;;;2.90;99.90;;;;;;7585689;19;20620;-73
2022/11/12 05:33:08;;;;;;;22.15;12.20;;;2.90;99.90;;;;;;7586863;19;20014;-73
2022/11/12 05:35:59;;;;;;;22.08;12.18;;;3.00;99.90;;;;;;7580491;19;20021;-72
2022/11/12 05:38:50;;;;;;;23.98;13.20;;;2.90;99.90;;;;;;7610218;19;20110;-73
2022/11/12 05:41:40;;;;;;;23.73;15.73;;;2.90;99.90;;;;;;7586660;19;20011;-72
2022/11/12 05:44:50;;;;;;;25.67;16.58;;;2.90;99.90;;;;;;7600281;19;20105;-73
2022/11/12 05:47:41;;;;;;;19.88;13.35;;;2.80;99.90;;;;;;7600981;19;20014;-72
2022/11/12 05:50:31;;;;;;;22.95;15.50;;;2.80;99.90;;;;;;7581483;19;20119;-73
2022/11/12 05:53:35;;;;;;;22.80;13.82;;;2.80;99.90;;;;;;7571813;19;20109;-73
2022/11/12 05:56:25;;;;;;;24.63;16.58;;;2.80;99.90;;;;;;7578867;19;20006;-72
2022/11/12 05:59:16;;;;;;;23.48;14.57;;;2.80;99.90;;;;;;7596138;19;20450;-72
2022/11/12 06:02:06;;;;;;;27.27;17.30;;;2.80;99.90;;;;;;7582802;19;20089;-73
2022/11/12 06:04:57;;;;;;;22.10;14.68;;;2.90;99.90;;;;;;7588713;19;20597;-72
2022/11/12 06:07:48;;;;;;;24.45;15.82;;;2.90;99.90;;;;;;7568500;19;20014;-72
2022/11/12 06:10:39;;;;;;;23.27;16.45;;;2.90;99.90;;;;;;7580041;19;21893;-73
2022/11/12 06:13:29;;;;;;;34.97;21.13;;;2.80;99.90;;;;;;7578709;19;21285;-73
2022/11/12 06:16:20;;;;;;;23.55;16.35;;;2.80;99.90;;;;;;7582950;19;20917;-73
2022/11/12 06:19:11;;;;;;;24.38;15.40;;;2.80;99.90;;;;;;7579031;19;20015;-73
2022/11/12 06:22:02;;;;;;;25.13;15.63;;;2.80;99.90;;;;;;7588941;19;20855;-74
2022/11/12 06:24:53;;;;;;;27.02;16.83;;;2.70;99.90;;;;;;7586060;19;20098;-73
2022/11/12 06:27:43;;;;;;;27.65;17.58;;;2.70;99.90;;;;;;7601863;19;20561;-74
2022/11/12 06:30:34;;;;;;;23.90;16.13;;;2.70;99.90;;;;;;7584468;19;20010;-73
2022/11/12 06:33:25;;;;;;;25.80;16.20;;;2.70;99.90;;;;;;7563892;19;20019;-72
2022/11/12 06:36:18;;;;;;;18.60;13.27;;;2.60;99.90;;;;;;7585067;19;20010;-73
2022/11/12 06:39:10;;;;;;;23.43;16.83;;;2.60;99.90;;;;;;7568155;19;20006;-73
2022/11/12 06:42:02;;;;;;;29.13;19.17;;;2.60;99.90;;;;;;7581030;19;20023;-72
2022/11/12 06:44:52;;;;;;;31.75;20.38;;;2.60;99.90;;;;;;7564655;19;20018;-73
2022/11/12 06:47:43;;;;;;;29.45;19.50;;;2.50;99.90;;;;;;7575175;19;20022;-74
2022/11/12 06:50:33;;;;;;;53.20;21.58;;;2.50;99.90;;;;;;7563627;19;20022;-72
2022/11/12 06:53:24;;;;;;;35.05;17.67;;;2.70;99.90;;;;;;7574976;19;21185;-73
2022/11/12 06:56:15;;;;;;;41.47;18.00;;;2.70;99.90;;;;;;7573810;19;20097;-73
2022/11/12 06:59:06;;;;;;;29.60;17.77;;;2.70;99.90;;;;;;7569979;19;20039;-73
2022/11/12 07:01:56;;;;;;;40.88;22.10;;;2.70;99.90;;;;;;7565202;19;20014;-72
2022/11/12 07:04:47;;;;;;;40.75;15.98;;;2.70;99.90;;;;;;7555767;19;20027;-73
2022/11/12 07:07:37;;;;;;;59.45;20.60;;;2.70;99.90;;;;;;7570513;19;20014;-73
2022/11/12 07:10:28;;;;;;;43.88;19.20;;;2.70;99.90;;;;;;7572501;19;20014;-73
2022/11/12 07:13:19;;;;;;;124.63;32.00;;;2.80;99.90;;;;;;7589897;19;20162;-73
2022/11/12 07:16:11;;;;;;;126.68;30.10;;;2.70;99.90;;;;;;7571756;19;20022;-72
2022/11/12 07:19:02;;;;;;;42.40;22.77;;;2.70;99.90;;;;;;7550649;19;20018;-73
2022/11/12 07:21:53;;;;;;;50.63;22.95;;;2.70;99.90;;;;;;7563580;19;20393;-73
2022/11/12 07:24:44;;;;;;;80.68;25.98;;;2.70;99.90;;;;;;7546428;19;20018;-73
2022/11/12 07:27:35;;;;;;;53.28;19.60;;;2.60;99.90;;;;;;6566319;19;9999973;-74
2022/11/12 07:30:26;;;;;;;51.88;21.27;;;2.70;99.90;;;;;;7584126;19;20200;-73
2022/11/12 07:33:16;;;;;;;67.03;23.60;;;2.70;99.90;;;;;;7573861;19;20014;-74
2022/11/12 07:36:15;;;;;;;30.30;16.92;;;2.70;99.90;;;;;;7561618;19;20078;-73
2022/11/12 07:39:06;;;;;;;25.42;15.98;;;2.90;99.90;;;;;;7571198;19;20022;-73
2022/11/12 07:41:57;;;;;;;61.55;22.27;;;3.00;99.90;;;;;;7592740;19;20927;-74
2022/11/12 07:44:48;;;;;;;32.30;16.83;;;3.10;99.90;;;;;;7571269;19;20014;-73
2022/11/12 07:47:39;;;;;;;46.22;22.23;;;3.10;99.90;;;;;;7578114;19;20006;-73
2022/11/12 07:50:29;;;;;;;35.92;19.75;;;3.10;99.90;;;;;;7572661;19;20029;-74
2022/11/12 07:53:20;;;;;;;23.85;16.80;;;3.20;99.90;;;;;;7581409;19;20007;-74
2022/11/12 07:56:13;;;;;;;24.80;15.50;;;3.30;99.90;;;;;;7573430;19;20049;-74
2022/11/12 07:59:04;;;;;;;32.55;18.20;;;3.30;99.90;;;;;;7565160;19;20019;-74
2022/11/12 08:01:55;;;;;;;29.00;18.25;;;3.20;99.90;;;;;;7591348;19;20011;-74
2022/11/12 08:04:47;;;;;;;35.25;19.00;;;3.30;99.90;;;;;;7583573;19;20014;-72
2022/11/12 08:07:38;;;;;;;22.90;15.75;;;3.30;99.90;;;;;;7590750;19;20692;-74
2022/11/12 08:10:28;;;;;;;69.20;25.98;;;3.40;99.90;;;;;;7573558;19;25224;-73
2022/11/12 08:13:19;;;;;;;22.48;16.40;;;3.50;99.90;;;;;;7572834;19;20010;-73
2022/11/12 08:16:10;;;;;;;25.58;16.98;;;3.60;99.90;;;;;;7582473;19;20439;-74
2022/11/12 08:19:00;;;;;;;26.88;16.73;;;3.70;99.90;;;;;;7592890;19;20411;-74
2022/11/12 08:21:51;;;;;;;31.63;18.48;;;3.80;99.90;;;;;;7579512;19;20030;-73
2022/11/12 08:24:42;;;;;;;26.23;17.52;;;3.90;99.90;;;;;;7578141;19;20047;-74
2022/11/12 08:27:33;;;;;;;25.80;17.00;;;4.00;99.90;;;;;;7572581;19;20042;-73
2022/11/12 08:30:25;;;;;;;26.10;16.48;;;4.00;99.90;;;;;;7578755;19;20030;-76
2022/11/12 08:33:16;;;;;;;33.03;19.30;;;4.10;99.90;;;;;;7588363;19;20014;-74
2022/11/12 08:36:10;;;;;;;30.27;16.40;;;4.20;99.90;;;;;;7580604;19;20037;-74
2022/11/12 08:39:00;;;;;;;26.33;16.33;;;4.30;99.90;;;;;;7570804;19;20010;-74
2022/11/12 08:41:51;;;;;;;40.75;17.58;;;4.50;99.90;;;;;;7606690;19;20015;-74
2022/11/12 08:44:41;;;;;;;24.95;15.93;;;4.40;99.90;;;;;;7577176;19;20010;-74
2022/11/12 08:47:32;;;;;;;26.60;16.90;;;4.40;99.90;;;;;;7584948;19;20074;-74
2022/11/12 08:50:23;;;;;;;22.15;14.30;;;4.50;99.90;;;;;;7569855;19;20041;-74
2022/11/12 08:53:14;;;;;;;22.40;15.30;;;4.60;99.90;;;;;;7571192;19;20837;-75
2022/11/12 08:56:05;;;;;;;22.00;13.40;;;4.70;99.90;;;;;;7574147;19;20109;-75
2022/11/12 08:58:56;;;;;;;28.70;17.27;;;4.80;99.90;;;;;;7566107;19;21110;-74
2022/11/12 09:01:46;;;;;;;35.10;19.77;;;4.90;99.90;;;;;;7586495;19;20010;-74
2022/11/12 09:04:38;;;;;;;38.17;18.17;;;5.00;99.90;;;;;;7593296;19;21600;-75
2022/11/12 09:07:28;;;;;;;40.35;21.50;;;4.90;99.90;;;;;;7600550;19;20041;-75
2022/11/12 09:10:40;;;;;;;23.92;15.90;;;5.00;99.90;;;;;;7607594;19;20018;-73
2022/11/12 09:13:31;;;;;;;23.90;15.50;;;5.10;99.90;;;;;;7612309;19;20026;-74
2022/11/12 09:16:23;;;;;;;20.52;14.65;;;5.30;99.90;;;;;;7547298;19;20014;-75
2022/11/12 09:19:13;;;;;;;23.15;15.23;;;5.50;99.90;;;;;;7576870;19;20007;-75
2022/11/12 09:22:04;;;;;;;22.52;15.73;;;5.70;99.90;;;;;;7565612;19;20651;-74
2022/11/12 09:24:55;;;;;;;23.02;13.60;;;5.90;99.90;;;;;;7586294;19;21898;-76
2022/11/12 09:27:46;;;;;;;19.67;14.32;;;6.00;99.90;;;;;;7559182;19;20014;-74
2022/11/12 09:30:46;;;;;;;18.98;14.13;;;6.00;99.90;;;;;;7581439;19;20010;-75
2022/11/12 09:33:37;;;;;;;22.90;15.23;;;6.10;99.90;;;;;;7579182;19;20022;-74
2022/11/12 09:36:28;;;;;;;25.38;17.13;;;6.20;99.90;;;;;;7558273;19;20415;-75
2022/11/12 09:39:19;;;;;;;21.55;14.88;;;6.30;99.90;;;;;;7565373;19;20119;-75
2022/11/12 09:42:16;;;;;;;19.98;14.82;;;6.40;99.90;;;;;;7567229;19;20038;-75
2022/11/12 09:45:21;;;;;;;20.73;15.40;;;6.40;99.90;;;;;;7574695;19;20018;-75
2022/11/12 09:48:19;;;;;;;21.25;16.30;;;6.50;99.90;;;;;;7562966;19;20011;-75
2022/11/12 09:51:18;;;;;;;21.92;16.13;;;6.30;99.90;;;;;;7574143;19;21300;-75
2022/11/12 09:54:31;;;;;;;20.85;14.05;;;6.50;99.90;;;;;;7561541;19;20011;-74
2022/11/12 09:57:22;;;;;;;19.15;14.82;;;6.50;99.90;;;;;;7577422;19;20022;-75
2022/11/12 10:00:16;;;;;;;17.85;12.80;;;6.70;99.90;;;;;;7558482;19;20022;-74
2022/11/12 10:03:24;;;;;;;16.48;12.25;;;6.80;99.90;;;;;;6542663;19;10000401;-75
2022/11/12 10:06:28;;;;;;;34.05;16.02;;;6.90;99.90;;;;;;7547060;19;20125;-75
2022/11/12 10:09:26;;;;;;;23.17;16.23;;;6.90;99.90;;;;;;7562587;19;20120;-75
2022/11/12 10:12:32;;;;;;;23.20;16.15;;;6.90;99.90;;;;;;7559410;19;20014;-75
2022/11/12 10:19:03;;;;;;;22.67;15.98;;;7.00;99.90;;;;;;7572921;19;20030;-75
2022/11/12 10:21:59;;;;;;;22.48;16.83;;;7.00;99.90;;;;;;7584332;19;21162;-75
2022/11/12 10:24:50;;;;;;;21.70;16.17;;;7.10;99.90;;;;;;7588592;19;20015;-76
2022/11/12 10:27:42;;;;;;;24.15;15.68;;;7.20;99.90;;;;;;7568036;19;20109;-74
2022/11/12 10:30:35;;;;;;;20.80;15.95;;;7.30;99.90;;;;;;7566832;19;20019;-75
2022/11/12 10:33:29;;;;;;;25.87;16.73;;;7.40;99.90;;;;;;7552556;19;20041;-75
2022/11/12 10:36:23;;;;;;;20.00;15.10;;;7.50;99.90;;;;;;7574053;19;20045;-75
2022/11/12 10:39:38;;;;;;;19.77;14.82;;;7.50;99.90;;;;;;7562647;19;20608;-75
2022/11/12 10:42:29;;;;;;;19.30;14.48;;;7.50;99.90;;;;;;7566203;19;21021;-75
2022/11/12 10:45:22;;;;;;;20.98;15.50;;;7.70;99.90;;;;;;7562178;19;20717;-75
2022/11/12 10:48:29;;;;;;;17.45;14.07;;;7.80;99.90;;;;;;7572406;19;20026;-75
2022/11/12 10:51:32;;;;;;;19.27;14.65;;;7.80;99.90;;;;;;7584022;19;20015;-75
2022/11/12 10:54:26;;;;;;;20.95;15.13;;;7.90;99.90;;;;;;7580399;19;20006;-75
2022/11/12 10:57:24;;;;;;;19.30;15.20;;;7.90;99.90;;;;;;7580190;19;20011;-75
2022/11/12 11:00:19;;;;;;;20.25;14.02;;;8.00;99.90;;;;;;7571080;19;20026;-75
2022/11/12 11:03:23;;;;;;;17.65;14.48;;;8.20;99.90;;;;;;7580931;19;20011;-74
2022/11/12 11:06:13;;;;;;;20.02;15.35;;;8.40;99.90;;;;;;7575462;19;20014;-75
2022/11/12 11:09:13;;;;;;;18.85;13.80;;;8.60;99.90;;;;;;7553586;19;20738;-74
2022/11/12 11:12:20;;;;;;;16.35;13.15;;;8.70;99.90;;;;;;7575224;19;20010;-75
2022/11/12 11:15:21;;;;;;;17.02;13.88;;;8.90;99.90;;;;;;7552799;19;20117;-74
2022/11/12 11:18:13;;;;;;;16.55;12.82;;;9.10;99.90;;;;;;7549366;19;20040;-74
2022/11/12 11:21:41;;;;;;;20.05;13.82;;;9.30;99.90;;;;;;7553820;19;20171;-75
2022/11/12 11:24:42;;;;;;;16.55;13.60;;;9.50;99.90;;;;;;7542194;19;22312;-75
2022/11/12 11:27:45;;;;;;;15.70;12.70;;;10.20;99.90;;;;;;7545068;19;20014;-75
2022/11/12 11:31:11;;;;;;;14.98;12.52;;;11.40;99.90;;;;;;7586668;19;20470;-76
2022/11/12 11:34:36;;;;;;;16.42;13.50;;;11.30;99.90;;;;;;7598176;19;20101;-75
2022/11/12 11:37:35;;;;;;;;;;;11.30;99.90;;;;;;7562987;19;20011;-76
2022/11/12 11:40:35;;;;;;;13.20;11.40;;;11.70;99.90;;;;;;7561648;19;19935;-76
2022/11/12 11:43:43;;;;;;;12.88;11.35;;;12.60;99.90;;;;;;7565682;19;20006;-74
2022/11/12 11:46:43;;;;;;;13.43;11.20;;;12.20;99.90;;;;;;7557256;19;20479;-75
2022/11/12 11:49:36;;;;;;;15.48;11.73;;;12.30;99.90;;;;;;7570607;19;20763;-75
2022/11/12 11:53:07;;;;;;;17.27;11.60;;;12.40;99.90;;;;;;7577020;19;20018;-75
2022/11/12 11:56:24;;;;;;;14.30;11.95;;;12.30;99.90;;;;;;7553492;19;20010;-74
2022/11/12 11:59:37;;;;;;;13.00;10.88;;;11.70;99.90;;;;;;7593805;19;20022;-75
2022/11/12 12:02:57;;;;;;;14.93;11.50;;;11.90;99.90;;;;;;7632419;19;20010;-74
2022/11/12 12:06:06;;;;;;;12.70;10.88;;;11.40;99.90;;;;;;7558116;19;20010;-74
2022/11/12 12:09:22;;;;;;;13.00;10.65;;;11.20;99.90;;;;;;7569928;19;20574;-75
2022/11/12 12:12:30;;;;;;;14.40;10.77;;;11.00;99.90;;;;;;7577505;19;20015;-74
2022/11/12 12:15:38;;;;;;;15.52;10.63;;;10.70;99.90;;;;;;7569325;19;20011;-74
2022/11/12 12:18:53;;;;;;;14.20;10.80;;;10.60;99.90;;;;;;7567745;19;20519;-75
2022/11/12 12:21:51;;;;;;;14.52;11.57;;;10.50;99.90;;;;;;7562671;19;20730;-75
2022/11/12 12:25:20;;;;;;;15.02;10.65;;;10.50;99.90;;;;;;7549478;19;20066;-76
2022/11/12 12:28:11;;;;;;;12.30;10.32;;;10.50;99.90;;;;;;7573138;19;20106;-76
2022/11/12 12:31:20;;;;;;;15.32;11.70;;;10.40;99.90;;;;;;7569881;19;20023;-75
2022/11/12 12:34:44;;;;;;;10.93;9.82;;;10.40;99.90;;;;;;7561421;19;20600;-75
2022/11/12 12:37:45;;;;;;;10.48;9.20;;;10.50;99.90;;;;;;7580916;19;20095;-76
2022/11/12 12:41:04;;;;;;;12.52;10.07;;;10.80;99.90;;;;;;7572508;19;20010;-73
2022/11/12 12:44:02;;;;;;;18.63;13.40;;;11.20;99.90;;;;;;7576570;19;20065;-75
2022/11/12 12:46:59;;;;;;;24.80;16.08;;;11.20;99.90;;;;;;7563783;19;20014;-74
2022/11/12 12:49:51;;;;;;;22.42;16.73;;;11.00;99.90;;;;;;7569999;19;20139;-75
2022/11/12 12:53:04;;;;;;;22.40;15.88;;;10.90;99.90;;;;;;7540747;19;20419;-75
2022/11/12 12:55:57;;;;;;;21.92;17.02;;;10.90;99.90;;;;;;7569745;19;20018;-75
2022/11/12 12:58:49;;;;;;;19.38;16.13;;;10.80;99.90;;;;;;7597118;19;20018;-74
2022/11/12 13:01:40;;;;;;;22.67;17.48;;;10.80;99.90;;;;;;7579560;19;20082;-75
2022/11/12 13:04:51;;;;;;;23.98;17.27;;;10.80;99.90;;;;;;7587719;19;20031;-74
2022/11/12 13:07:43;;;;;;;26.15;17.42;;;10.60;99.90;;;;;;7594137;19;20018;-75
2022/11/12 13:10:46;;;;;;;25.48;18.05;;;10.50;99.90;;;;;;7598613;19;20036;-74
2022/11/12 13:13:37;;;;;;;26.10;18.17;;;10.40;99.90;;;;;;7592966;19;20034;-75
2022/11/12 13:16:51;;;;;;;22.95;18.17;;;10.30;99.90;;;;;;7615074;19;20018;-74
2022/11/12 13:19:56;;;;;;;23.08;18.02;;;10.30;99.90;;;;;;7600845;19;20022;-74
2022/11/12 13:22:49;;;;;;;20.67;16.25;;;10.30;99.90;;;;;;7590991;19;20014;-75
2022/11/12 13:25:40;;;;;;;24.58;17.23;;;10.20;99.90;;;;;;7592470;19;20018;-75
2022/11/12 13:28:30;;;;;;;22.55;16.90;;;10.20;99.90;;;;;;7613197;19;20015;-75
2022/11/12 13:31:26;;;;;;;21.90;17.67;;;10.20;99.90;;;;;;7608635;19;20014;-75
2022/11/12 13:34:25;;;;;;;23.13;16.73;;;10.20;99.90;;;;;;7583277;19;20014;-74
2022/11/12 13:37:22;;;;;;;20.23;16.10;;;10.20;99.90;;;;;;7584273;19;20006;-74
2022/11/12 13:40:34;;;;;;;21.80;15.90;;;10.10;99.90;;;;;;7566650;19;20046;-75
2022/11/12 13:43:37;;;;;;;20.10;15.65;;;10.10;99.90;;;;;;7580107;19;20018;-76
2022/11/12 13:46:33;;;;;;;22.63;16.75;;;10.00;99.90;;;;;;7562897;19;20533;-75
2022/11/12 13:49:23;;;;;;;18.88;15.48;;;10.10;99.90;;;;;;7574005;19;20226;-76
2022/11/12 13:52:15;;;;;;;21.10;15.43;;;10.00;99.90;;;;;;7576752;19;20031;-75
2022/11/12 13:55:22;;;;;;;18.45;14.68;;;10.00;99.90;;;;;;7585729;19;20023;-79
2022/11/12 13:58:34;;;;;;;18.67;14.77;;;10.00;99.90;;;;;;7577968;19;20053;-76
2022/11/12 14:01:32;;;;;;;20.83;15.50;;;10.00;99.90;;;;;;7566379;19;20357;-75
2022/11/12 14:04:24;;;;;;;20.70;16.05;;;9.90;99.90;;;;;;7584870;19;21287;-74
2022/11/12 14:07:41;;;;;;;19.13;15.20;;;9.90;99.90;;;;;;7575267;19;20027;-74
2022/11/12 14:10:53;;;;;;;18.15;14.95;;;9.90;99.90;;;;;;7577602;19;20019;-75
2022/11/12 14:13:57;;;;;;;21.60;16.27;;;9.80;99.90;;;;;;7576051;19;20026;-75
2022/11/12 14:17:00;;;;;;;20.70;15.75;;;9.80;99.90;;;;;;7557394;19;20550;-74
2022/11/12 14:20:18;;;;;;;23.42;16.50;;;9.70;99.90;;;;;;7586664;19;20022;-74
2022/11/12 14:23:16;;;;;;;21.50;17.10;;;9.70;99.90;;;;;;7599578;19;20111;-73
2022/11/12 14:26:32;;;;;;;25.30;17.38;;;9.60;99.90;;;;;;7577912;19;20089;-74
2022/11/12 14:29:23;;;;;;;24.80;16.77;;;9.70;99.90;;;;;;7599716;19;20619;-74
2022/11/12 14:32:19;;;;;;;23.27;17.08;;;9.60;99.90;;;;;;7588173;19;20023;-74
2022/11/12 14:35:31;;;;;;;23.30;17.30;;;9.50;99.90;;;;;;7555169;19;20019;-74
2022/11/12 14:38:26;;;;;;;21.08;17.15;;;9.40;99.90;;;;;;7570956;19;20577;-74
2022/11/12 14:41:24;;;;;;;23.23;18.23;;;9.40;99.90;;;;;;7573108;19;20014;-74
2022/11/12 14:44:21;;;;;;;24.95;18.00;;;9.40;99.90;;;;;;7571255;19;20014;-73
2022/11/12 14:47:16;;;;;;;26.42;18.13;;;9.30;99.90;;;;;;7561490;19;20080;-74
2022/11/12 14:50:31;;;;;;;27.23;19.02;;;9.20;99.90;;;;;;7583656;19;20895;-74
2022/11/12 14:53:38;;;;;;;27.35;18.13;;;9.20;99.90;;;;;;7603157;19;20090;-74
2022/11/12 14:56:47;;;;;;;25.58;18.83;;;9.00;99.90;;;;;;7594150;19;20034;-75
2022/11/12 14:59:38;;;;;;;30.33;20.10;;;8.90;99.90;;;;;;7579624;19;20880;-74
2022/11/12 15:02:31;;;;;;;26.00;18.92;;;8.80;99.90;;;;;;7587455;19;20045;-76
2022/11/12 15:06:14;;;;;;;24.50;17.80;;;8.80;99.90;;;;;;7603742;19;20015;-74
2022/11/12 15:09:05;;;;;;;25.00;18.42;;;8.60;99.90;;;;;;7576676;19;21000;-75
2022/11/12 15:11:56;;;;;;;26.65;19.85;;;8.50;99.90;;;;;;7608070;19;20584;-73
2022/11/12 15:14:47;;;;;;;27.10;20.35;;;8.50;99.90;;;;;;7576105;19;20030;-74
2022/11/12 15:17:37;;;;;;;27.23;20.63;;;8.40;99.90;;;;;;7570012;19;20648;-74
2022/11/12 15:20:28;;;;;;;26.17;19.95;;;8.30;99.90;;;;;;7553084;19;20010;-74
2022/11/12 15:23:19;;;;;;;27.45;20.08;;;8.20;99.90;;;;;;7564237;19;20025;-74
2022/11/12 15:26:14;;;;;;;29.23;20.45;;;8.10;99.90;;;;;;7590326;19;20014;-73
2022/11/12 15:29:10;;;;;;;28.77;21.20;;;8.10;99.90;;;;;;7574235;19;20090;-75
2022/11/12 15:32:10;;;;;;;34.05;23.10;;;8.10;99.90;;;;;;7560541;19;20031;-73
2022/11/12 15:35:03;;;;;;;31.60;23.55;;;8.00;99.90;;;;;;7549674;19;21123;-74